Time;durP1;ratioP1;P1;durP2;ratioP2;P2;SDS_P1;SDS_P2;PMS_P1;PMS_P2;Temp;Humidity;BMP_temperature;BMP_pressure;BME280_temperature;BME280_humidity;BME280_pressure;Samples;Min_cycle;Max_cycle;Signal;HPM_P1;HPM_P2
2022/03/04 00:00:27;;;;;;;0.50;0.50;;;1.10;99.90;;;;;;5052351;28;20209;-75
2022/03/04 00:02:54;;;;;;;0.63;0.57;;;1.00;99.90;;;;;;5053371;28;20286;-75
2022/03/04 00:05:20;;;;;;;1.13;1.13;;;0.90;99.90;;;;;;5053673;28;20206;-75
2022/03/04 00:07:45;;;;;;;2.20;1.07;;;0.80;99.90;;;;;;5052266;28;20238;-74
2022/03/04 00:10:11;;;;;;;0.93;0.93;;;0.70;99.90;;;;;;5048153;28;20209;-76
2022/03/04 00:12:36;;;;;;;2.87;1.10;;;0.60;99.90;;;;;;5045295;28;20690;-76
2022/03/04 00:15:03;;;;;;;1.97;1.87;;;0.60;99.90;;;;;;5053383;28;20258;-76
2022/03/04 00:17:28;;;;;;;2.00;1.53;;;0.50;99.90;;;;;;5051981;28;20619;-75
2022/03/04 00:19:54;;;;;;;1.00;0.97;;;0.60;99.90;;;;;;5053348;28;20177;-76
2022/03/04 00:22:20;;;;;;;0.50;0.50;;;0.50;99.90;;;;;;5052727;28;20185;-74
2022/03/04 00:24:45;;;;;;;0.90;0.70;;;0.50;99.90;;;;;;5053016;28;20183;-74
2022/03/04 00:27:11;;;;;;;0.40;0.40;;;0.60;99.90;;;;;;5051789;28;20205;-74
2022/03/04 00:29:36;;;;;;;0.40;0.40;;;0.60;99.90;;;;;;5053188;28;20565;-74
2022/03/04 00:32:02;;;;;;;1.43;1.33;;;0.60;99.90;;;;;;5051490;28;20236;-74
2022/03/04 00:34:28;;;;;;;2.13;2.03;;;0.70;99.90;;;;;;5053131;28;20175;-74
2022/03/04 00:36:53;;;;;;;1.77;1.67;;;0.60;99.90;;;;;;5052929;28;20174;-74
2022/03/04 00:39:19;;;;;;;0.30;0.30;;;0.60;99.90;;;;;;5052188;28;20177;-74
2022/03/04 00:41:44;;;;;;;0.50;0.50;;;0.70;99.90;;;;;;5053141;28;20177;-75
2022/03/04 00:44:10;;;;;;;1.13;1.03;;;0.70;99.90;;;;;;5052813;28;20670;-73
2022/03/04 00:46:36;;;;;;;0.97;0.97;;;0.70;99.90;;;;;;5053064;28;20728;-74
2022/03/04 00:49:04;;;;;;;0.80;0.80;;;0.70;99.90;;;;;;5052847;28;20550;-74
2022/03/04 00:51:29;;;;;;;1.37;1.20;;;0.70;99.90;;;;;;5053511;28;20670;-74
2022/03/04 00:53:55;;;;;;;1.80;1.70;;;0.70;99.90;;;;;;5056062;28;20460;-75
2022/03/04 00:56:20;;;;;;;0.30;0.30;;;0.70;99.90;;;;;;5053117;28;20217;-76
2022/03/04 00:58:46;;;;;;;1.10;1.10;;;0.60;99.90;;;;;;5039115;28;20226;-75
2022/03/04 01:01:12;;;;;;;4.23;1.40;;;0.60;99.90;;;;;;5048092;28;20181;-76
2022/03/04 01:03:37;;;;;;;0.50;0.50;;;0.40;99.90;;;;;;5055748;28;20232;-75
2022/03/04 01:06:05;;;;;;;3.03;1.50;;;0.30;99.90;;;;;;5053864;28;20676;-75
2022/03/04 01:08:30;;;;;;;0.53;0.53;;;0.20;99.90;;;;;;5040944;28;20210;-75
2022/03/04 01:10:56;;;;;;;1.17;1.17;;;0.10;99.90;;;;;;5052655;28;20177;-75
2022/03/04 01:13:23;;;;;;;0.57;0.57;;;0.10;99.90;;;;;;5051981;28;20205;-75
2022/03/04 01:15:49;;;;;;;1.43;1.33;;;0.00;99.90;;;;;;5052041;28;20237;-75
2022/03/04 01:18:15;;;;;;;0.47;0.47;;;0.00;99.90;;;;;;5052085;28;20197;-75
2022/03/04 01:20:40;;;;;;;0.80;0.80;;;-0.10;99.90;;;;;;5051182;28;20173;-75
2022/03/04 01:23:06;;;;;;;3.03;2.80;;;-0.10;99.90;;;;;;5051664;28;20188;-76
2022/03/04 01:25:32;;;;;;;1.63;1.57;;;-0.10;99.90;;;;;;5052022;28;20188;-76
2022/03/04 01:27:58;;;;;;;0.40;0.40;;;-0.10;99.90;;;;;;5080967;22;20212;-74
2022/03/04 01:30:23;;;;;;;1.17;1.07;;;-0.10;99.90;;;;;;5092394;28;20179;-73
2022/03/04 01:32:49;;;;;;;0.63;0.63;;;-0.20;99.90;;;;;;5090304;28;20275;-73
2022/03/04 01:35:15;;;;;;;1.13;1.13;;;-0.20;99.90;;;;;;5092209;28;20229;-73
2022/03/04 01:37:41;;;;;;;0.63;0.63;;;-0.20;99.90;;;;;;5091884;28;20197;-73
2022/03/04 01:40:09;;;;;;;0.73;0.73;;;-0.30;99.90;;;;;;5092429;28;20204;-74
2022/03/04 01:42:36;;;;;;;0.33;0.27;;;-0.30;99.90;;;;;;5073598;28;20180;-74
2022/03/04 01:45:05;;;;;;;0.20;0.20;;;-0.30;99.90;;;;;;5091950;28;20716;-74
2022/03/04 01:47:31;;;;;;;2.00;1.90;;;-0.30;99.90;;;;;;5091971;28;20290;-73
2022/03/04 01:49:56;;;;;;;0.97;0.97;;;-0.30;99.90;;;;;;5091970;28;20266;-73
2022/03/04 01:52:22;;;;;;;0.50;0.50;;;-0.30;99.90;;;;;;5091391;28;20310;-73
2022/03/04 01:54:47;;;;;;;1.30;1.10;;;-0.30;99.90;;;;;;5074027;28;20177;-73
2022/03/04 01:57:13;;;;;;;0.97;0.63;;;-0.10;99.90;;;;;;5092198;28;20180;-73
2022/03/04 01:59:39;;;;;;;0.93;0.93;;;-0.10;99.90;;;;;;5079727;28;20176;-73
2022/03/04 02:02:04;;;;;;;0.77;0.77;;;-0.10;99.90;;;;;;5081858;28;20692;-75
2022/03/04 02:04:30;;;;;;;0.90;0.80;;;-0.10;99.90;;;;;;5074764;28;20172;-75
2022/03/04 02:06:56;;;;;;;0.73;0.73;;;-0.10;99.90;;;;;;5091358;28;20236;-74
2022/03/04 02:09:22;;;;;;;2.77;2.57;;;-0.10;99.90;;;;;;5091691;28;20282;-73
2022/03/04 02:11:48;;;;;;;0.80;0.80;;;-0.10;99.90;;;;;;5073245;28;20207;-74
2022/03/04 02:14:15;;;;;;;0.83;0.83;;;-0.10;99.90;;;;;;5091638;28;20191;-73
2022/03/04 02:16:47;;;;;;;2.30;2.20;;;0.00;99.90;;;;;;5091561;28;20169;-74
2022/03/04 02:19:13;;;;;;;0.70;0.70;;;0.10;99.90;;;;;;5073389;28;20192;-74
2022/03/04 02:22:01;;;;;;;1.73;1.07;;;0.20;99.90;;;;;;5091260;28;20176;-74
2022/03/04 02:24:29;;;;;;;0.47;0.43;;;0.20;99.90;;;;;;5073690;28;20175;-74
2022/03/04 02:26:57;;;;;;;1.57;1.57;;;0.30;99.90;;;;;;5073408;28;20184;-74
2022/03/04 02:29:24;;;;;;;1.13;1.00;;;0.30;99.90;;;;;;5073458;28;20682;-73
2022/03/04 02:31:51;;;;;;;0.63;0.63;;;0.20;99.90;;;;;;5091019;28;20187;-76
2022/03/04 02:34:17;;;;;;;2.47;2.27;;;0.10;99.90;;;;;;5067222;28;20254;-75
2022/03/04 02:36:43;;;;;;;2.20;2.10;;;0.00;99.90;;;;;;5073705;28;20218;-75
2022/03/04 02:39:09;;;;;;;2.77;2.67;;;-0.10;99.90;;;;;;5073605;28;20196;-74
2022/03/04 02:41:36;;;;;;;0.20;0.20;;;-0.20;99.90;;;;;;5073048;28;20172;-74
2022/03/04 02:44:04;;;;;;;2.53;2.33;;;-0.20;99.90;;;;;;5075300;28;20198;-74
2022/03/04 02:46:30;;;;;;;2.63;1.70;;;-0.30;99.90;;;;;;5098219;28;20176;-73
2022/03/04 02:48:55;;;;;;;1.93;1.53;;;-0.30;99.90;;;;;;5078202;28;20219;-75
2022/03/04 02:51:21;;;;;;;0.53;0.53;;;-0.30;99.90;;;;;;5095083;28;20663;-74
2022/03/04 02:53:47;;;;;;;1.63;1.53;;;-0.40;99.90;;;;;;5095216;28;20281;-73
2022/03/04 02:56:13;;;;;;;0.40;0.40;;;-0.40;99.90;;;;;;5095307;28;20644;-73
2022/03/04 02:58:39;;;;;;;1.47;1.47;;;-0.30;99.90;;;;;;5093336;28;20593;-74
2022/03/04 03:01:05;;;;;;;1.73;1.67;;;-0.30;99.90;;;;;;5076899;28;20179;-74
2022/03/04 03:03:31;;;;;;;0.70;0.70;;;-0.30;99.90;;;;;;5095091;28;20538;-73
2022/03/04 03:05:56;;;;;;;3.03;2.83;;;-0.40;99.90;;;;;;5076789;28;20267;-73
2022/03/04 03:08:22;;;;;;;1.73;1.53;;;-0.40;99.90;;;;;;5095078;28;20206;-73
2022/03/04 03:10:47;;;;;;;1.13;1.13;;;-0.40;99.90;;;;;;5095075;28;20208;-73
2022/03/04 03:13:13;;;;;;;1.07;1.03;;;-0.40;99.90;;;;;;5094642;28;20195;-73
2022/03/04 03:15:38;;;;;;;1.43;1.20;;;-0.50;99.90;;;;;;5094716;28;20654;-74
2022/03/04 03:18:04;;;;;;;2.83;0.90;;;-0.60;99.90;;;;;;5095126;28;20202;-73
2022/03/04 03:20:30;;;;;;;0.20;0.20;;;-0.50;99.90;;;;;;5094979;28;20539;-73
2022/03/04 03:22:55;;;;;;;0.10;0.10;;;-0.60;99.90;;;;;;5094829;28;20249;-73
2022/03/04 03:25:21;;;;;;;4.30;2.40;;;-0.60;99.90;;;;;;5094891;28;20207;-74
2022/03/04 03:27:47;;;;;;;1.60;1.60;;;-0.60;99.90;;;;;;5094373;28;20273;-73
2022/03/04 03:30:13;;;;;;;2.77;2.67;;;-0.60;99.90;;;;;;5094519;28;20199;-73
2022/03/04 03:32:38;;;;;;;4.23;1.60;;;-0.60;99.90;;;;;;5076018;28;20203;-73
2022/03/04 03:35:07;;;;;;;1.40;1.40;;;-0.50;99.90;;;;;;5094726;28;20176;-73
2022/03/04 03:37:34;;;;;;;0.93;0.93;;;-0.50;99.90;;;;;;5094624;28;20274;-74
2022/03/04 03:39:59;;;;;;;1.53;1.53;;;-0.40;99.90;;;;;;5076461;28;20615;-73
2022/03/04 03:42:25;;;;;;;0.67;0.67;;;-0.50;99.90;;;;;;5076351;28;20229;-73
2022/03/04 03:44:50;;;;;;;0.37;0.37;;;-0.40;99.90;;;;;;5094450;28;20179;-74
2022/03/04 03:47:16;;;;;;;0.47;0.47;;;-0.40;99.90;;;;;;5094540;28;20183;-73
2022/03/04 03:49:41;;;;;;;0.30;0.30;;;-0.30;99.90;;;;;;5094595;28;20639;-73
2022/03/04 03:52:07;;;;;;;1.30;1.20;;;-0.30;99.90;;;;;;5075794;28;20793;-73
2022/03/04 03:54:33;;;;;;;2.83;1.90;;;-0.30;99.90;;;;;;5094268;28;20168;-74
2022/03/04 03:56:58;;;;;;;1.37;1.27;;;-0.30;99.90;;;;;;5093356;28;20643;-73
2022/03/04 03:59:24;;;;;;;0.83;0.83;;;-0.30;99.90;;;;;;5072501;28;20200;-73
2022/03/04 04:01:49;;;;;;;3.10;2.90;;;-0.30;99.90;;;;;;5088280;28;20176;-74
2022/03/04 04:04:17;;;;;;;1.97;1.87;;;-0.30;99.90;;;;;;5094027;28;20195;-73
2022/03/04 04:06:43;;;;;;;0.83;0.83;;;-0.30;99.90;;;;;;5093602;28;20574;-74
2022/03/04 04:09:09;;;;;;;3.37;3.10;;;-0.30;99.90;;;;;;5093845;28;20671;-73
2022/03/04 04:11:36;;;;;;;2.33;2.23;;;-0.40;99.90;;;;;;5093249;28;20172;-73
2022/03/04 04:14:03;;;;;;;0.30;0.30;;;-0.30;99.90;;;;;;5093551;28;20198;-73
2022/03/04 04:16:29;;;;;;;2.23;1.90;;;-0.30;99.90;;;;;;5093687;28;20634;-74
2022/03/04 04:18:56;;;;;;;0.10;0.10;;;-0.40;99.90;;;;;;5093633;28;20207;-74
2022/03/04 04:21:22;;;;;;;1.50;1.40;;;-0.50;99.90;;;;;;5075167;28;20176;-73
2022/03/04 04:23:48;;;;;;;2.17;0.97;;;-0.50;99.90;;;;;;5093622;28;20182;-74
2022/03/04 04:26:13;;;;;;;1.47;1.47;;;-0.60;99.90;;;;;;5093534;28;20188;-74
2022/03/04 04:28:39;;;;;;;0.77;0.77;;;-0.50;99.90;;;;;;5093134;28;20290;-73
2022/03/04 04:31:04;;;;;;;1.63;1.63;;;-0.50;99.90;;;;;;5093769;28;20182;-72
2022/03/04 04:33:31;;;;;;;1.30;1.30;;;-0.60;99.90;;;;;;5093285;28;20689;-73
2022/03/04 04:35:57;;;;;;;2.00;1.90;;;-0.60;99.90;;;;;;5093452;28;20550;-73
2022/03/04 04:38:22;;;;;;;1.97;1.77;;;-0.60;99.90;;;;;;5093278;28;20198;-73
2022/03/04 04:40:48;;;;;;;1.27;1.27;;;-0.60;99.90;;;;;;5093219;28;20174;-74
2022/03/04 04:43:14;;;;;;;0.50;0.50;;;-0.60;99.90;;;;;;5092767;28;20180;-73
2022/03/04 04:45:39;;;;;;;4.00;1.60;;;-0.60;99.90;;;;;;5074939;28;20199;-72
2022/03/04 04:48:05;;;;;;;1.63;1.53;;;-0.60;99.90;;;;;;5093144;28;20286;-73
2022/03/04 04:50:30;;;;;;;1.80;1.70;;;-0.60;99.90;;;;;;5093307;28;20176;-74
2022/03/04 04:52:56;;;;;;;0.80;0.80;;;-0.60;99.90;;;;;;5092904;28;20731;-73
2022/03/04 04:55:22;;;;;;;2.40;2.20;;;-0.60;99.90;;;;;;5092928;28;20184;-73
2022/03/04 04:57:47;;;;;;;2.13;2.03;;;-0.60;99.90;;;;;;5093463;28;20546;-73
2022/03/04 05:00:13;;;;;;;1.37;1.33;;;-0.70;99.90;;;;;;5079794;28;20181;-73
2022/03/04 05:02:39;;;;;;;1.93;1.80;;;-0.70;99.90;;;;;;5092797;28;20241;-73
2022/03/04 05:05:05;;;;;;;0.97;0.97;;;-0.70;99.90;;;;;;5092698;28;20176;-73
2022/03/04 05:07:31;;;;;;;1.27;1.17;;;-0.80;99.90;;;;;;5092477;28;20694;-73
2022/03/04 05:09:56;;;;;;;0.73;0.73;;;-0.80;99.90;;;;;;5074494;28;20229;-74
2022/03/04 05:12:22;;;;;;;0.30;0.30;;;-0.80;99.90;;;;;;5092161;28;20562;-74
2022/03/04 05:14:47;;;;;;;2.17;1.50;;;-0.80;99.90;;;;;;5092539;28;20651;-73
2022/03/04 05:17:13;;;;;;;0.80;0.80;;;-0.90;99.90;;;;;;5074233;28;20325;-74
2022/03/04 05:19:38;;;;;;;2.40;2.30;;;-0.90;99.90;;;;;;5093081;28;20233;-73
2022/03/04 05:22:04;;;;;;;3.70;1.43;;;-0.90;99.90;;;;;;5092356;28;20180;-73
2022/03/04 05:24:29;;;;;;;1.23;1.10;;;-1.00;99.90;;;;;;5092275;28;20187;-73
2022/03/04 05:26:55;;;;;;;1.50;1.50;;;-1.00;99.90;;;;;;5092749;28;20172;-73
2022/03/04 05:29:20;;;;;;;0.63;0.63;;;-1.10;99.90;;;;;;5092053;28;20233;-73
2022/03/04 05:31:46;;;;;;;1.47;1.37;;;-1.10;99.90;;;;;;5091963;28;20172;-73
2022/03/04 05:34:12;;;;;;;0.73;0.73;;;-1.20;99.90;;;;;;5092288;28;20237;-74
2022/03/04 05:36:39;;;;;;;2.03;1.40;;;-1.30;99.90;;;;;;5074083;28;20176;-73
2022/03/04 05:39:05;;;;;;;3.03;2.37;;;-1.30;99.90;;;;;;5092317;28;20249;-72
2022/03/04 05:41:31;;;;;;;0.30;0.30;;;-1.30;99.90;;;;;;5091806;28;20165;-73
2022/03/04 05:43:56;;;;;;;2.13;0.70;;;-1.30;99.90;;;;;;5073839;28;20236;-74
2022/03/04 05:46:22;;;;;;;1.80;1.30;;;-1.20;99.90;;;;;;5092442;28;20258;-74
2022/03/04 05:48:48;;;;;;;1.23;1.23;;;-1.30;99.90;;;;;;5084038;28;20188;-72
2022/03/04 05:51:14;;;;;;;0.77;0.77;;;-1.30;99.90;;;;;;5084127;28;20226;-73
2022/03/04 05:53:40;;;;;;;2.97;1.57;;;-1.30;99.90;;;;;;5077329;28;20239;-74
2022/03/04 05:56:07;;;;;;;1.20;1.20;;;-1.30;99.90;;;;;;5069451;28;20168;-76
2022/03/04 05:58:34;;;;;;;1.70;1.60;;;-1.30;99.90;;;;;;5064008;28;20845;-75
2022/03/04 06:01:00;;;;;;;6.33;1.50;;;-1.50;99.90;;;;;;5075585;28;20180;-77
2022/03/04 06:03:26;;;;;;;1.57;1.50;;;-1.50;99.90;;;;;;5068545;28;20268;-75
2022/03/04 06:05:51;;;;;;;7.63;1.43;;;-1.50;99.90;;;;;;5071715;28;20255;-76
2022/03/04 06:08:18;;;;;;;6.47;3.55;;;-1.50;99.90;;;;;;5087326;28;20482;-76
2022/03/04 06:10:43;;;;;;;3.57;3.27;;;-1.50;99.90;;;;;;5072556;28;20252;-75
2022/03/04 06:13:09;;;;;;;7.30;1.43;;;-1.40;99.90;;;;;;5068714;28;20299;-75
2022/03/04 06:15:34;;;;;;;1.60;1.50;;;-1.40;99.90;;;;;;5072103;28;20203;-75
2022/03/04 06:18:00;;;;;;;0.63;0.47;;;-1.30;99.90;;;;;;5058865;28;20192;-73
2022/03/04 06:20:26;;;;;;;0.73;0.73;;;-1.30;99.90;;;;;;5070570;28;20229;-72
2022/03/04 06:22:51;;;;;;;1.03;1.00;;;-1.20;99.90;;;;;;5054546;28;20200;-73
2022/03/04 06:25:17;;;;;;;0.80;0.80;;;-1.20;99.90;;;;;;5070821;28;20184;-73
2022/03/04 06:27:59;;;;;;;1.00;1.00;;;-1.30;99.90;;;;;;5053347;28;20830;-74
2022/03/04 06:30:27;;;;;;;4.57;3.87;;;-1.30;99.90;;;;;;5053196;28;20176;-73
2022/03/04 06:36:08;;;;;;;3.20;0.93;;;-1.20;99.90;;;;;;5009720;28;20217;-74
2022/03/04 06:38:36;;;;;;;0.30;0.30;;;-1.00;99.90;;;;;;5010802;28;20248;-74
2022/03/04 06:41:03;;;;;;;1.03;1.03;;;-0.90;99.90;;;;;;5042707;28;20188;-74
2022/03/04 06:43:29;;;;;;;1.60;1.60;;;-0.80;99.90;;;;;;5053240;28;20259;-73
2022/03/04 06:45:55;;;;;;;0.87;0.87;;;-0.70;99.90;;;;;;5053103;28;20187;-74
2022/03/04 06:48:23;;;;;;;2.00;1.53;;;-0.70;99.90;;;;;;5071187;28;20628;-75
2022/03/04 06:50:50;;;;;;;2.50;2.40;;;-0.70;99.90;;;;;;5053335;28;20188;-73
2022/03/04 06:53:16;;;;;;;0.70;0.70;;;-0.70;99.90;;;;;;5071338;28;20191;-74
2022/03/04 06:55:41;;;;;;;1.47;1.37;;;-0.50;99.90;;;;;;5073306;28;20173;-73
2022/03/04 06:58:07;;;;;;;0.40;0.40;;;-0.50;99.90;;;;;;5071614;28;20204;-74
2022/03/04 07:00:33;;;;;;;1.80;1.70;;;-0.40;99.90;;;;;;5071473;28;20179;-73
2022/03/04 07:02:59;;;;;;;0.93;0.93;;;-0.40;99.90;;;;;;5071233;28;20172;-73
2022/03/04 07:05:24;;;;;;;0.53;0.53;;;-0.30;99.90;;;;;;5071017;28;20660;-74
2022/03/04 07:07:52;;;;;;;1.37;1.27;;;-0.30;99.90;;;;;;5088479;28;20202;-74
2022/03/04 07:10:18;;;;;;;1.13;1.07;;;-0.20;99.90;;;;;;5060392;28;20181;-72
2022/03/04 07:12:44;;;;;;;3.00;1.87;;;-0.20;99.90;;;;;;5073058;28;20203;-73
2022/03/04 07:15:10;;;;;;;4.43;2.60;;;-0.10;99.90;;;;;;5054890;28;20181;-74
2022/03/04 07:17:35;;;;;;;2.10;1.13;;;0.00;99.90;;;;;;5053719;28;20200;-74
2022/03/04 07:20:02;;;;;;;6.07;4.13;;;0.00;99.90;;;;;;5071212;28;20169;-74
2022/03/04 07:22:27;;;;;;;1.20;1.20;;;0.10;99.90;;;;;;5053453;28;20678;-74
2022/03/04 07:24:53;;;;;;;1.70;1.60;;;0.20;99.90;;;;;;5070719;28;20184;-74
2022/03/04 07:27:19;;;;;;;0.67;0.23;;;0.30;99.90;;;;;;5053387;28;20208;-74
2022/03/04 07:29:44;;;;;;;0.77;0.77;;;0.40;99.90;;;;;;5076331;22;20237;-74
2022/03/04 07:32:10;;;;;;;2.33;2.13;;;0.50;99.90;;;;;;5050618;28;20747;-75
2022/03/04 07:34:35;;;;;;;0.37;0.37;;;0.70;99.90;;;;;;5035656;28;20173;-74
2022/03/04 07:37:01;;;;;;;2.13;2.03;;;0.80;99.90;;;;;;5053259;28;20173;-74
2022/03/04 07:39:27;;;;;;;5.03;4.47;;;1.00;99.90;;;;;;5048441;28;20553;-74
2022/03/04 07:41:52;;;;;;;10.33;5.00;;;1.10;99.90;;;;;;5052762;28;20174;-75
2022/03/04 07:44:19;;;;;;;2.13;1.87;;;1.20;99.90;;;;;;5056152;28;20183;-74
2022/03/04 07:46:45;;;;;;;8.60;2.00;;;1.30;99.90;;;;;;5052988;28;20174;-74
2022/03/04 07:49:10;;;;;;;3.43;2.07;;;1.50;99.90;;;;;;5053614;28;20197;-75
2022/03/04 07:51:36;;;;;;;1.23;1.23;;;1.60;99.90;;;;;;5053287;28;20645;-75
2022/03/04 07:54:02;;;;;;;1.90;1.80;;;1.70;99.90;;;;;;5053250;28;20189;-74
2022/03/04 07:56:27;;;;;;;1.27;1.17;;;1.80;99.90;;;;;;5053151;28;20176;-73
2022/03/04 07:58:53;;;;;;;7.55;5.15;;;1.90;99.90;;;;;;5052341;28;20397;-76
2022/03/04 08:01:19;;;;;;;2.10;1.80;;;2.00;99.90;;;;;;5034790;28;20212;-74
2022/03/04 08:03:45;;;;;;;2.70;2.50;;;2.10;99.90;;;;;;5052612;28;20179;-72
2022/03/04 08:06:12;;;;;;;2.37;2.27;;;2.20;99.90;;;;;;5055521;28;20208;-75
2022/03/04 08:08:38;;;;;;;2.97;2.53;;;2.40;99.90;;;;;;5060886;28;20280;-75
2022/03/04 08:11:03;;;;;;;0.47;0.47;;;2.50;99.90;;;;;;5035330;28;20209;-75
2022/03/04 08:13:29;;;;;;;1.50;1.50;;;2.60;99.90;;;;;;5055192;28;20209;-74
2022/03/04 08:15:54;;;;;;;1.77;1.07;;;2.70;99.90;;;;;;5052244;28;20185;-75
2022/03/04 08:18:20;;;;;;;1.60;1.50;;;2.90;99.90;;;;;;5052896;28;20566;-75
2022/03/04 08:20:46;;;;;;;3.13;2.73;;;3.00;99.90;;;;;;5052578;28;20561;-75
2022/03/04 08:23:11;;;;;;;4.23;3.63;;;3.10;99.90;;;;;;5051831;28;20187;-74
2022/03/04 08:25:38;;;;;;;0.90;0.90;;;3.20;99.90;;;;;;5052621;28;20210;-75
2022/03/04 08:28:04;;;;;;;10.97;2.57;;;3.20;99.90;;;;;;5052325;28;20287;-75
2022/03/04 08:30:32;;;;;;;2.70;2.53;;;3.30;99.90;;;;;;5051105;28;20283;-74
2022/03/04 08:32:59;;;;;;;3.97;2.23;;;3.40;99.90;;;;;;5051535;28;20208;-73
2022/03/04 08:35:25;;;;;;;4.10;2.57;;;3.60;99.90;;;;;;5037431;28;20272;-75
2022/03/04 08:37:52;;;;;;;6.00;3.33;;;3.80;99.90;;;;;;5052329;28;20234;-75
2022/03/04 08:40:18;;;;;;;9.90;2.77;;;3.80;99.90;;;;;;5052189;28;20257;-75
2022/03/04 08:42:43;;;;;;;2.40;1.20;;;4.10;99.90;;;;;;5051478;28;20556;-74
2022/03/04 08:45:10;;;;;;;1.73;0.73;;;4.10;99.90;;;;;;5051807;28;20189;-75
2022/03/04 08:47:36;;;;;;;2.97;2.77;;;4.10;99.90;;;;;;5052148;28;20654;-75
2022/03/04 08:50:03;;;;;;;6.33;4.57;;;4.20;99.90;;;;;;5055018;28;20730;-74
2022/03/04 08:52:28;;;;;;;4.10;3.80;;;4.30;99.90;;;;;;5051667;28;20312;-75
2022/03/04 08:54:54;;;;;;;3.03;2.87;;;4.40;99.90;;;;;;5034258;28;20181;-75
2022/03/04 08:57:19;;;;;;;3.80;3.47;;;4.50;99.90;;;;;;5052049;28;20185;-75
2022/03/04 08:59:45;;;;;;;5.93;3.47;;;4.70;99.90;;;;;;5051848;28;20204;-76
2022/03/04 09:02:10;;;;;;;2.23;2.10;;;4.80;99.90;;;;;;5051496;28;20180;-76
2022/03/04 09:04:36;;;;;;;3.20;2.93;;;4.80;99.90;;;;;;5051700;28;20224;-76
2022/03/04 09:07:03;;;;;;;8.07;3.00;;;4.80;99.90;;;;;;5056084;28;20238;-74
2022/03/04 09:09:29;;;;;;;9.33;5.47;;;5.00;99.90;;;;;;5051474;28;20193;-76
2022/03/04 09:11:55;;;;;;;2.47;2.37;;;5.10;99.90;;;;;;5052196;28;20181;-75
2022/03/04 09:14:23;;;;;;;2.43;2.27;;;5.20;99.90;;;;;;5051319;28;20185;-76
2022/03/04 09:16:49;;;;;;;11.13;3.47;;;5.30;99.90;;;;;;5051626;28;20596;-75
2022/03/04 09:19:15;;;;;;;6.17;3.27;;;5.30;99.90;;;;;;5036542;28;20209;-75
2022/03/04 09:21:40;;;;;;;4.47;3.97;;;5.30;99.90;;;;;;5051132;28;20641;-76
2022/03/04 09:24:07;;;;;;;2.73;2.63;;;5.40;99.90;;;;;;5050895;28;20277;-75
2022/03/04 09:26:32;;;;;;;3.27;3.07;;;5.50;99.90;;;;;;5050740;28;20599;-75
2022/03/04 09:28:58;;;;;;;9.27;4.73;;;5.60;99.90;;;;;;5050951;28;20290;-74
2022/03/04 09:31:24;;;;;;;2.10;2.00;;;5.60;99.90;;;;;;5050791;28;20264;-75
2022/03/04 09:33:49;;;;;;;6.60;2.93;;;5.70;99.90;;;;;;5054631;28;20584;-75
2022/03/04 09:36:15;;;;;;;7.73;3.27;;;5.80;99.90;;;;;;5051266;28;20692;-75
2022/03/04 09:38:42;;;;;;;3.20;3.07;;;5.80;99.90;;;;;;5051407;28;20200;-75
2022/03/04 09:41:08;;;;;;;3.57;2.20;;;6.00;99.90;;;;;;5051844;28;20672;-76
2022/03/04 09:43:34;;;;;;;3.97;3.53;;;6.00;99.90;;;;;;5050905;28;20189;-76
2022/03/04 09:46:00;;;;;;;5.20;2.33;;;6.10;99.90;;;;;;5051047;28;20193;-76
2022/03/04 09:48:27;;;;;;;3.77;3.37;;;6.10;99.90;;;;;;5051037;28;20216;-75
2022/03/04 09:50:53;;;;;;;6.47;3.03;;;6.10;99.90;;;;;;5050928;28;20189;-77
2022/03/04 09:53:19;;;;;;;10.47;4.13;;;6.20;99.90;;;;;;5050687;28;20660;-73
2022/03/04 09:55:45;;;;;;;9.83;3.93;;;6.30;99.90;;;;;;5050025;28;20187;-76
2022/03/04 09:58:17;;;;;;;2.63;2.50;;;6.40;99.90;;;;;;5051087;28;20200;-76
2022/03/04 10:00:44;;;;;;;2.27;2.13;;;6.60;99.90;;;;;;5050852;28;20192;-74
2022/03/04 10:03:28;;;;;;;5.87;4.43;;;6.70;99.90;;;;;;5050327;28;20239;-76
2022/03/04 10:05:55;;;;;;;3.37;3.20;;;6.70;99.90;;;;;;5021603;28;20184;-75
2022/03/04 10:08:22;;;;;;;8.47;3.30;;;6.90;99.90;;;;;;5061542;28;20281;-76
2022/03/04 10:10:51;;;;;;;10.67;3.60;;;7.20;99.90;;;;;;5050758;28;20894;-77
2022/03/04 10:13:18;;;;;;;7.43;6.67;;;7.20;99.90;;;;;;5050636;28;20207;-76
2022/03/04 10:15:54;;;;;;;3.40;3.20;;;7.20;99.90;;;;;;5050879;28;20207;-76
2022/03/04 10:18:28;;;;;;;5.03;4.53;;;7.40;99.90;;;;;;5051824;28;20204;-76
2022/03/04 10:20:54;;;;;;;4.73;3.90;;;7.50;99.90;;;;;;5049939;28;20219;-76
2022/03/04 10:23:25;;;;;;;1.70;1.63;;;7.40;99.90;;;;;;5050411;28;20188;-76
2022/03/04 10:25:58;;;;;;;2.70;2.50;;;7.50;99.90;;;;;;5049728;28;20187;-74
2022/03/04 10:28:28;;;;;;;5.27;4.40;;;7.70;99.90;;;;;;5044795;28;20271;-75
2022/03/04 10:30:56;;;;;;;7.07;3.53;;;7.70;99.90;;;;;;5049886;28;20260;-74
2022/03/04 10:33:24;;;;;;;5.67;4.73;;;7.70;99.90;;;;;;5032174;28;20208;-76
2022/03/04 10:36:11;;;;;;;3.43;3.17;;;8.00;99.90;;;;;;5050380;28;20740;-76
2022/03/04 10:38:37;;;;;;;15.43;6.57;;;8.20;99.90;;;;;;5050298;28;20444;-75
2022/03/04 10:41:24;;;;;;;7.53;4.47;;;8.30;99.90;;;;;;5052434;28;20192;-77
2022/03/04 10:43:51;;;;;;;17.63;9.63;;;8.70;99.90;;;;;;5058343;28;20488;-77
2022/03/04 10:46:17;;;;;;;5.63;5.13;;;9.00;99.90;;;;;;5043340;28;20424;-76
2022/03/04 10:48:57;;;;;;;4.57;4.17;;;9.00;99.90;;;;;;5060779;28;20200;-76
2022/03/04 10:51:36;;;;;;;7.97;5.93;;;9.50;99.90;;;;;;5044497;28;20184;-76
2022/03/04 10:54:16;;;;;;;7.73;3.90;;;9.40;99.90;;;;;;5049259;28;20205;-75
2022/03/04 10:56:55;;;;;;;6.73;6.10;;;9.60;99.90;;;;;;5050468;28;20521;-76
2022/03/04 10:59:21;;;;;;;5.73;4.77;;;10.20;99.90;;;;;;5041678;28;20672;-77
2022/03/04 11:01:48;;;;;;;5.20;4.80;;;10.20;99.90;;;;;;5031852;28;20648;-76
2022/03/04 11:04:18;;;;;;;11.40;6.97;;;10.10;99.90;;;;;;5050307;28;20181;-76
2022/03/04 11:06:45;;;;;;;7.03;5.80;;;10.20;99.90;;;;;;5060442;28;20245;-76
2022/03/04 11:09:13;;;;;;;10.03;7.87;;;10.30;99.90;;;;;;5068243;28;20295;-76
2022/03/04 11:11:43;;;;;;;10.10;7.63;;;10.40;99.90;;;;;;5053291;28;20644;-76
2022/03/04 11:14:10;;;;;;;4.17;3.83;;;10.30;99.90;;;;;;5053746;28;20220;-76
2022/03/04 11:16:37;;;;;;;4.93;3.90;;;10.20;99.90;;;;;;5054437;28;20235;-76
2022/03/04 11:19:02;;;;;;;7.40;2.67;;;10.60;99.90;;;;;;5043725;28;20208;-76
2022/03/04 11:21:28;;;;;;;4.27;3.87;;;11.00;99.90;;;;;;5053448;28;20296;-77
2022/03/04 11:23:54;;;;;;;7.33;6.47;;;11.60;99.90;;;;;;5053750;28;20177;-76
2022/03/04 11:26:21;;;;;;;8.60;7.10;;;12.00;99.90;;;;;;5053918;28;20219;-76
2022/03/04 11:28:49;;;;;;;9.23;5.57;;;11.90;99.90;;;;;;5035513;28;20303;-76
2022/03/04 11:31:20;;;;;;;5.07;3.10;;;12.00;99.90;;;;;;5053704;28;20178;-76
2022/03/04 11:33:51;;;;;;;6.50;3.33;;;12.40;99.90;;;;;;5035211;28;20684;-76
2022/03/04 11:36:19;;;;;;;5.97;5.37;;;12.90;99.90;;;;;;5035597;28;20193;-76
2022/03/04 11:38:47;;;;;;;9.43;5.60;;;13.30;99.90;;;;;;5037976;28;20205;-77
2022/03/04 11:41:32;;;;;;;5.33;4.80;;;13.80;99.90;;;;;;5035311;28;20195;-76
2022/03/04 11:44:17;;;;;;;8.17;6.00;;;13.80;99.90;;;;;;5052984;28;20739;-75
2022/03/04 11:46:55;;;;;;;16.15;8.63;;;14.70;99.90;;;;;;5052392;28;20781;-76
2022/03/04 11:49:48;;;;;;;10.57;5.37;;;15.70;99.90;;;;;;5053101;28;20199;-76
2022/03/04 11:52:26;;;;;;;4.53;4.13;;;16.70;99.90;;;;;;5037129;28;20630;-76
2022/03/04 11:54:51;;;;;;;5.50;4.90;;;16.60;94.70;;;;;;5053109;28;20180;-76
2022/03/04 11:57:30;;;;;;;14.10;4.80;;;15.60;98.40;;;;;;5053152;28;20184;-76
2022/03/04 12:00:14;;;;;;;6.73;3.80;;;16.30;96.80;;;;;;5052871;28;20192;-76
2022/03/04 12:02:42;;;;;;;12.07;6.23;;;15.80;95.90;;;;;;5048937;28;20682;-75
2022/03/04 12:05:14;;;;;;;4.33;3.97;;;15.50;94.70;;;;;;5052719;28;20705;-76
2022/03/04 12:07:44;;;;;;;12.57;7.75;;;15.40;93.50;;;;;;5056941;28;20407;-76
2022/03/04 12:10:12;;;;;;;8.97;5.00;;;15.10;92.40;;;;;;5061433;28;20675;-76
2022/03/04 12:12:39;;;;;;;10.37;4.40;;;15.40;94.40;;;;;;5058237;28;20204;-76
2022/03/04 12:15:16;;;;;;;12.30;7.60;;;16.30;95.90;;;;;;5035475;28;21014;-76
2022/03/04 12:18:03;;;;;;;9.27;5.57;;;16.90;94.90;;;;;;5033966;28;20579;-76
2022/03/04 12:20:41;;;;;;;5.07;3.93;;;16.40;90.60;;;;;;5040878;28;20693;-76
2022/03/04 12:23:10;;;;;;;7.63;5.30;;;16.80;82.30;;;;;;5052707;28;20189;-76
2022/03/04 12:26:02;;;;;;;9.97;5.40;;;16.90;85.00;;;;;;5052538;28;20185;-77
2022/03/04 12:28:34;;;;;;;6.40;4.23;;;16.70;88.20;;;;;;5034072;28;20235;-76
2022/03/04 12:31:05;;;;;;;8.33;3.70;;;16.40;87.80;;;;;;5052286;28;20651;-76
2022/03/04 12:33:32;;;;;;;9.23;3.37;;;15.90;85.60;;;;;;5034349;28;20233;-76
2022/03/04 12:35:59;;;;;;;6.63;5.03;;;17.00;85.60;;;;;;5052836;28;20639;-76
2022/03/04 12:38:29;;;;;;;16.20;4.30;;;16.70;80.00;;;;;;5051986;28;20201;-76
2022/03/04 12:40:58;;;;;;;6.80;4.60;;;16.30;80.00;;;;;;5052166;28;20178;-76
2022/03/04 12:43:25;;;;;;;12.53;6.80;;;16.90;81.50;;;;;;5054338;28;20177;-74
2022/03/04 12:45:52;;;;;;;7.40;4.67;;;17.80;75.50;;;;;;5039437;28;20323;-74
2022/03/04 12:48:21;;;;;;;5.20;4.07;;;16.90;74.60;;;;;;5051640;28;20248;-73
2022/03/04 12:50:47;;;;;;;4.33;3.47;;;17.10;73.20;;;;;;5052439;28;20277;-73
2022/03/04 12:53:23;;;;;;;5.67;5.17;;;17.00;75.30;;;;;;5049545;28;20301;-74